Map

Track Data

SID SEASON NUMBER BASIN SUBBASIN NAME ISO_TIME NATURE LAT LON WMO_WIND WMO_PRES WMO_AGENCY TRACK_TYPE DIST2LAND LANDFALL IFLAG USA_AGENCY USA_ATCF_ID USA_LAT USA_LON USA_RECORD USA_STATUS USA_WIND USA_PRES USA_SSHS USA_R34_NE USA_R34_SE USA_R34_SW USA_R34_NW USA_R50_NE USA_R50_SE USA_R50_SW USA_R50_NW USA_R64_NE USA_R64_SE USA_R64_SW USA_R64_NW USA_POCI USA_ROCI USA_RMW USA_EYE TOKYO_LAT TOKYO_LON TOKYO_GRADE TOKYO_WIND TOKYO_PRES TOKYO_R50_DIR TOKYO_R50_LONG TOKYO_R50_SHORT TOKYO_R30_DIR TOKYO_R30_LONG TOKYO_R30_SHORT TOKYO_LAND CMA_LAT CMA_LON CMA_CAT CMA_WIND CMA_PRES HKO_LAT HKO_LON HKO_CAT HKO_WIND HKO_PRES NEWDELHI_LAT NEWDELHI_LON NEWDELHI_GRADE NEWDELHI_WIND NEWDELHI_PRES NEWDELHI_CI NEWDELHI_DP NEWDELHI_POCI REUNION_LAT REUNION_LON REUNION_TYPE REUNION_WIND REUNION_PRES REUNION_TNUM REUNION_CI REUNION_RMW REUNION_R34_NE REUNION_R34_SE REUNION_R34_SW REUNION_R34_NW REUNION_R50_NE REUNION_R50_SE REUNION_R50_SW REUNION_R50_NW REUNION_R64_NE REUNION_R64_SE REUNION_R64_SW REUNION_R64_NW BOM_LAT BOM_LON BOM_TYPE BOM_WIND BOM_PRES BOM_TNUM BOM_CI BOM_RMW BOM_R34_NE BOM_R34_SE BOM_R34_SW BOM_R34_NW BOM_R50_NE BOM_R50_SE BOM_R50_SW BOM_R50_NW BOM_R64_NE BOM_R64_SE BOM_R64_SW BOM_R64_NW BOM_ROCI BOM_POCI BOM_EYE BOM_POS_METHOD BOM_PRES_METHOD NADI_LAT NADI_LON NADI_CAT NADI_WIND NADI_PRES WELLINGTON_LAT WELLINGTON_LON WELLINGTON_WIND WELLINGTON_PRES DS824_LAT DS824_LON DS824_STAGE DS824_WIND DS824_PRES TD9636_LAT TD9636_LON TD9636_STAGE TD9636_WIND TD9636_PRES TD9635_LAT TD9635_LON TD9635_WIND TD9635_PRES TD9635_ROCI NEUMANN_LAT NEUMANN_LON NEUMANN_CLASS NEUMANN_WIND NEUMANN_PRES MLC_LAT MLC_LON MLC_CLASS MLC_WIND MLC_PRES USA_GUST BOM_GUST BOM_GUST_PER REUNION_GUST REUNION_GUST_PER USA_SEAHGT USA_SEARAD_NE USA_SEARAD_SE USA_SEARAD_SW USA_SEARAD_NW STORM_SPEED STORM_DIR
1958236N25287 1958 69 NA NA DAISY 1958-08-23 18:00:00 TS 25.0000 -73.0000 25 hurdat_atl main 424 424 O_____________ hurdat_atl AL041958 25.0000 -73.0000 TD 25 -1 3 304
1958236N25287 1958 69 NA NA DAISY 1958-08-23 21:00:00 TS 25.0900 -73.1525 main 435 435 P_____________ AL041958 25.0900 -73.1525 TD 25 -1 3 306
1958236N25287 1958 69 NA NA DAISY 1958-08-24 00:00:00 TS 25.2000 -73.3000 25 hurdat_atl main 447 442 O_____________ hurdat_atl AL041958 25.2000 -73.3000 TD 25 -1 4 314
1958236N25287 1958 69 NA NA DAISY 1958-08-24 03:00:00 TS 25.3425 -73.4425 main 442 427 P_____________ AL041958 25.3425 -73.4425 TD 27 -1 4 318
1958236N25287 1958 69 NA NA DAISY 1958-08-24 06:00:00 TS 25.5000 -73.6000 30 hurdat_atl main 427 411 O_____________ hurdat_atl AL041958 25.5000 -73.6000 TD 30 -1 4 315
1958236N25287 1958 69 NA NA DAISY 1958-08-24 09:00:00 TS 25.6500 -73.7850 main 411 399 P_____________ AL041958 25.6500 -73.7850 TD 32 -1 5 310
1958236N25287 1958 69 NA NA DAISY 1958-08-24 12:00:00 TS 25.8000 -74.0000 35 hurdat_atl main 399 385 O_____________ hurdat_atl AL041958 25.8000 -74.0000 TS 35 0 5 306
1958236N25287 1958 69 NA NA DAISY 1958-08-24 15:00:00 TS 25.9575 -74.2500 main 389 366 P_____________ AL041958 25.9575 -74.2500 TS 37 0 5 304
1958236N25287 1958 69 NA NA DAISY 1958-08-24 18:00:00 TS 26.1000 -74.5000 40 hurdat_atl main 366 352 O_____________ hurdat_atl AL041958 26.1000 -74.5000 TS 40 0 5 301
1958236N25287 1958 69 NA NA DAISY 1958-08-24 21:00:00 TS 26.2074 -74.7076 main 352 338 P_____________ AL041958 26.2074 -74.7076 TS 45 0 4 299
1958236N25287 1958 69 NA NA DAISY 1958-08-25 00:00:00 TS 26.3000 -74.9000 50 1002 hurdat_atl main 338 324 O_____________ hurdat_atl AL041958 26.3000 -74.9000 TS 50 1002 0 4 298
1958236N25287 1958 69 NA NA DAISY 1958-08-25 03:00:00 TS 26.4000 -75.1150 main 324 312 P_____________ AL041958 26.4000 -75.1150 TS 50 1001 0 4 299
1958236N25287 1958 69 NA NA DAISY 1958-08-25 06:00:00 TS 26.5000 -75.3000 50 1000 hurdat_atl main 312 303 O_____________ hurdat_atl AL041958 26.5000 -75.3000 TS 50 1000 0 3 305
1958236N25287 1958 69 NA NA DAISY 1958-08-25 09:00:00 TS 26.5849 -75.4076 main 309 300 P_____________ AL041958 26.5849 -75.4076 TS 52 998 0 3 318
1958236N25287 1958 69 NA NA DAISY 1958-08-25 12:00:00 TS 26.7000 -75.5000 55 996 hurdat_atl main 307 305 O_____________ hurdat_atl AL041958 26.7000 -75.5000 TS 55 996 0 4 327
1958236N25287 1958 69 NA NA DAISY 1958-08-25 15:00:00 TS 26.8849 -75.6276 main 312 305 P_____________ AL041958 26.8849 -75.6276 TS 55 996 0 5 326
1958236N25287 1958 69 NA NA DAISY 1958-08-25 18:00:00 TS 27.1000 -75.8000 55 997 hurdat_atl main 313 307 O_____________ hurdat_atl AL041958 27.1000 -75.8000 TS 55 997 0 6 319
1958236N25287 1958 69 NA NA DAISY 1958-08-25 21:00:00 TS 27.3075 -76.0350 main 316 310 P_____________ AL041958 27.3075 -76.0350 TS 57 994 0 6 312
1958236N25287 1958 69 NA NA DAISY 1958-08-26 00:00:00 TS 27.5000 -76.3000 60 992 hurdat_atl main 317 311 O_____________ hurdat_atl AL041958 27.5000 -76.3000 TS 60 992 0 6 306
1958236N25287 1958 69 NA NA DAISY 1958-08-26 03:00:00 TS 27.6576 -76.5725 main 322 317 P_____________ AL041958 27.6576 -76.5725 TS 65 987 1 5 304
1958236N25287 1958 69 NA NA DAISY 1958-08-26 06:00:00 TS 27.8000 -76.8000 70 hurdat_atl main 324 320 I_____________ hurdat_atl AL041958 27.8000 -76.8000 HU 70 983 1 4 312
1958236N25287 1958 69 NA NA DAISY 1958-08-26 09:00:00 TS 27.9424 -76.9301 main 329 324 P_____________ AL041958 27.9424 -76.9301 HU 77 979 1 3 330
1958236N25287 1958 69 NA NA DAISY 1958-08-26 12:00:00 TS 28.1000 -77.0000 85 975 hurdat_atl main 329 324 O_____________ hurdat_atl AL041958 28.1000 -77.0000 HU 85 975 2 4 340
1958236N25287 1958 69 NA NA DAISY 1958-08-26 15:00:00 TS 28.3000 -77.0799 main 328 328 P_____________ AL041958 28.3000 -77.0799 HU 85 975 2 4 348
1958236N25287 1958 69 NA NA DAISY 1958-08-26 18:00:00 TS 28.5000 -77.1000 85 975 hurdat_atl main 331 331 O_____________ hurdat_atl AL041958 28.5000 -77.1000 HU 85 975 2 4 6
1958236N25287 1958 69 NA NA DAISY 1958-08-26 21:00:00 TS 28.6650 -77.0375 main 342 342 P_____________ AL041958 28.6650 -77.0375 HU 87 973 2 3 30
1958236N25287 1958 69 NA NA DAISY 1958-08-27 00:00:00 TS 28.8000 -76.9000 90 972 hurdat_atl main 352 352 O_____________ hurdat_atl AL041958 28.8000 -76.9000 HU 90 972 2 4 49
1958236N25287 1958 69 NA NA DAISY 1958-08-27 03:00:00 TS 28.9075 -76.7225 main 372 372 P_____________ AL041958 28.9075 -76.7225 HU 95 967 2 4 60
1958236N25287 1958 69 NA NA DAISY 1958-08-27 06:00:00 TS 29.0000 -76.5000 100 hurdat_atl main 393 393 I_____________ hurdat_atl AL041958 29.0000 -76.5000 HU 100 962 3 4 67
1958236N25287 1958 69 NA NA DAISY 1958-08-27 09:00:00 TS 29.0850 -76.2499 main 423 423 P_____________ AL041958 29.0850 -76.2499 HU 105 957 3 5 65
1958236N25287 1958 69 NA NA DAISY 1958-08-27 12:00:00 TS 29.2000 -76.0000 110 952 hurdat_atl main 444 444 O_____________ hurdat_atl AL041958 29.2000 -76.0000 HU 110 952 3 5 54
1958236N25287 1958 69 NA NA DAISY 1958-08-27 15:00:00 TS 29.3624 -75.8072 main 467 467 P_____________ AL041958 29.3624 -75.8072 HU 112 950 3 5 41
1958236N25287 1958 69 NA NA DAISY 1958-08-27 18:00:00 TS 29.6000 -75.6000 115 948 hurdat_atl main 491 491 O_____________ hurdat_atl AL041958 29.6000 -75.6000 HU 115 948 4 7 40
1958236N25287 1958 69 NA NA DAISY 1958-08-27 21:00:00 TS 29.8901 -75.3000 main 513 490 P_____________ AL041958 29.8901 -75.3000 HU 115 4 9 37
1958236N25287 1958 69 NA NA DAISY 1958-08-28 00:00:00 TS 30.3000 -75.0000 115 hurdat_atl main 490 457 O_____________ hurdat_atl AL041958 30.3000 -75.0000 HU 115 4 10 25
1958236N25287 1958 69 NA NA DAISY 1958-08-28 03:00:00 TS 30.8324 -74.7846 main 457 398 P_____________ AL041958 30.8324 -74.7846 HU 112 3 13 16
1958236N25287 1958 69 NA NA DAISY 1958-08-28 06:00:00 TS 31.5000 -74.6000 110 hurdat_atl main 398 339 O_____________ hurdat_atl AL041958 31.5000 -74.6000 HU 110 3 15 14
1958236N25287 1958 69 NA NA DAISY 1958-08-28 09:00:00 TS 32.2701 -74.3780 main 330 276 P_____________ AL041958 32.2701 -74.3780 HU 105 3 16 12
1958236N25287 1958 69 NA NA DAISY 1958-08-28 12:00:00 TS 33.1000 -74.2000 100 hurdat_atl main 276 230 O_____________ hurdat_atl AL041958 33.1000 -74.2000 HU 100 3 16 7
1958236N25287 1958 69 NA NA DAISY 1958-08-28 15:00:00 TS 33.8999 -74.1341 main 230 176 P_____________ AL041958 33.8999 -74.1341 HU 97 3 16 3
1958236N25287 1958 69 NA NA DAISY 1958-08-28 18:00:00 TS 34.7000 -74.1000 95 965 hurdat_atl main 176 133 O_____________ hurdat_atl AL041958 34.7000 -74.1000 HU 95 965 2 16 1
1958236N25287 1958 69 NA NA DAISY 1958-08-28 21:00:00 TS 35.4919 -74.0873 main 130 125 P_____________ AL041958 35.4919 -74.0873 HU 95 965 2 16 6
1958236N25287 1958 69 NA NA DAISY 1958-08-29 00:00:00 TS 36.3000 -73.9000 95 965 hurdat_atl main 153 153 O_____________ hurdat_atl AL041958 36.3000 -73.9000 HU 95 965 2 17 19
1958236N25287 1958 69 NA NA DAISY 1958-08-29 03:00:00 TS 37.1193 -73.3979 main 199 192 P_____________ AL041958 37.1193 -73.3979 HU 92 967 2 20 31
1958236N25287 1958 69 NA NA DAISY 1958-08-29 06:00:00 TS 38.0000 -72.6000 90 969 hurdat_atl main 219 213 O_____________ hurdat_atl AL041958 38.0000 -72.6000 HU 90 969 2 24 37
1958236N25287 1958 69 NA NA DAISY 1958-08-29 09:00:00 TS 39.0150 -71.5913 main 217 178 P_____________ AL041958 39.0150 -71.5913 HU 85 971 2 26 41
1958236N25287 1958 69 NA NA DAISY 1958-08-29 12:00:00 TS 40.0000 -70.4000 80 hurdat_atl main 168 115 I_____________ hurdat_atl AL041958 40.0000 -70.4000 HU 80 974 1 26 45
1958236N25287 1958 69 NA NA DAISY 1958-08-29 15:00:00 TS 40.8607 -69.2024 main 111 111 P_____________ AL041958 40.8607 -69.2024 HU 75 977 1 24 52
1958236N25287 1958 69 NA NA DAISY 1958-08-29 18:00:00 ET 41.5000 -67.9000 70 980 hurdat_atl main 175 175 O_____________ hurdat_atl AL041958 41.5000 -67.9000 EX 70 980 -4 22 64
1958236N25287 1958 69 NA NA DAISY 1958-08-29 21:00:00 ET 41.8206 -66.5560 main 202 166 P_____________ AL041958 41.8206 -66.5560 EX 67 -4 22 77
1958236N25287 1958 69 NA NA DAISY 1958-08-30 00:00:00 ET 42.0000 -65.0000 65 hurdat_atl main 168 165 O_____________ hurdat_atl AL041958 42.0000 -65.0000 EX 65 -4 26 79
1958236N25287 1958 69 NA NA DAISY 1958-08-30 03:00:00 ET 42.3103 -63.0873 main 216 216 P_____________ AL041958 42.3103 -63.0873 EX 62 -4 30 80
1958236N25287 1958 69 NA NA DAISY 1958-08-30 06:00:00 ET 42.5000 -61.0000 60 hurdat_atl main 282 282 O_____________ hurdat_atl AL041958 42.5000 -61.0000 EX 60 -4 30 89
1958236N25287 1958 69 NA NA DAISY 1958-08-30 09:00:00 ET 42.3839 -58.9931 main 353 353 P_____________ AL041958 42.3839 -58.9931 EX 55 -4 30 96
1958236N25287 1958 69 NA NA DAISY 1958-08-30 12:00:00 ET 42.2000 -57.0000 50 hurdat_atl main 465 465 O_____________ hurdat_atl AL041958 42.2000 -57.0000 EX 50 -4 30 94
1958236N25287 1958 69 NA NA DAISY 1958-08-30 15:00:00 ET 42.1741 -55.0021 main 501 489 P_____________ AL041958 42.1741 -55.0021 EX 50 -4 30 90
1958236N25287 1958 69 NA NA DAISY 1958-08-30 18:00:00 ET 42.2000 -53.0000 50 hurdat_atl main 489 489 O_____________ hurdat_atl AL041958 42.2000 -53.0000 EX 50 -4 30 89
1958236N25287 1958 69 NA NA DAISY 1958-08-30 21:00:00 ET 42.2144 -50.9991 main 519 519 P_____________ AL041958 42.2144 -50.9991 EX 50 -4 30 90
1958236N25287 1958 69 NA NA DAISY 1958-08-31 00:00:00 ET 42.2000 -49.0000 50 hurdat_atl main 591 O_____________ hurdat_atl AL041958 42.2000 -49.0000 EX 50 -4 30 91

About IBTrACS Database

This database is a web-friendly format of International Best Track Archive for Climate Stewardship (IBTrACS), a global best track data archive curated by NOAA dating back to 1842.

Updated: 2021-10-25